createdAt,value
2019-04-29T00:00:56.167Z,100831.42
2019-04-29T00:03:24.180Z,100830.20
2019-04-29T00:05:53.187Z,100824.89
2019-04-29T00:08:21.067Z,100818.27
2019-04-29T00:10:49.014Z,100822.95
2019-04-29T00:13:17.044Z,100812.77
2019-04-29T00:16:02.724Z,100818.06
2019-04-29T00:18:39.383Z,100820.13
2019-04-29T00:21:08.252Z,100818.27
2019-04-29T00:23:36.002Z,100827.20
2019-04-29T00:26:03.767Z,100823.67
2019-04-29T00:28:31.521Z,100825.73
2019-04-29T00:30:59.470Z,100825.52
2019-04-29T00:33:27.222Z,100824.17
2019-04-29T00:35:54.981Z,100820.01
2019-04-29T00:38:45.593Z,100813.48
2019-04-29T00:41:22.832Z,100816.08
2019-04-29T00:43:54.191Z,100812.04
2019-04-29T00:46:22.388Z,100806.95
2019-04-29T00:48:52.789Z,100803.11
2019-04-29T00:51:20.637Z,100808.92
2019-04-29T00:53:50.552Z,100804.75
2019-04-29T00:56:18.381Z,100802.56
2019-04-29T00:58:46.194Z,100806.50
2019-04-29T01:01:18.594Z,100811.98
2019-04-29T01:03:46.467Z,100809.21
2019-04-29T01:06:14.237Z,100807.86
2019-04-29T01:08:42.011Z,100812.55
2019-04-29T01:11:09.854Z,100817.31
2019-04-29T01:13:37.776Z,100811.33
2019-04-29T01:16:05.590Z,100810.90
2019-04-29T01:18:33.355Z,100817.64
2019-04-29T01:21:01.124Z,100800.63
2019-04-29T01:23:28.857Z,100804.13
2019-04-29T01:26:00.186Z,100794.61
2019-04-29T01:28:33.897Z,100797.30
2019-04-29T01:31:06.944Z,100800.20
2019-04-29T01:33:34.730Z,100798.34
2019-04-29T01:36:22.270Z,100797.80
2019-04-29T01:38:51.771Z,100796.87
2019-04-29T01:41:22.134Z,100797.38
2019-04-29T01:44:02.651Z,100799.34
2019-04-29T01:46:30.433Z,100806.01
2019-04-29T01:48:58.187Z,100804.61
2019-04-29T01:51:26.053Z,100802.95
2019-04-29T01:53:53.809Z,100799.11
2019-04-29T01:56:21.573Z,100807.76
2019-04-29T01:58:49.322Z,100803.32
2019-04-29T02:01:17.097Z,100797.55
2019-04-29T02:03:44.875Z,100793.17
2019-04-29T02:06:12.729Z,100797.70
2019-04-29T02:08:40.843Z,100799.39
2019-04-29T02:11:08.631Z,100797.84
2019-04-29T02:13:36.377Z,100796.16
2019-04-29T02:16:04.240Z,100796.89
2019-04-29T02:18:31.986Z,100797.17
2019-04-29T02:20:59.751Z,100796.23
2019-04-29T02:23:33.693Z,100798.98
2019-04-29T02:26:01.445Z,100802.52
2019-04-29T02:28:29.218Z,100798.91
2019-04-29T02:30:58.966Z,100797.43
2019-04-29T02:33:27.154Z,100806.64
2019-04-29T02:35:54.940Z,100799.48
2019-04-29T02:38:33.274Z,100796.23
2019-04-29T02:41:08.387Z,100797.45
2019-04-29T02:43:38.066Z,100791.19
2019-04-29T02:46:05.874Z,100787.50
2019-04-29T02:48:34.751Z,100789.99
2019-04-29T02:51:03.148Z,100785.63
2019-04-29T02:53:31.638Z,100781.20
2019-04-29T02:56:00.208Z,100783.16
2019-04-29T02:58:56.112Z,100776.63
2019-04-29T03:01:43.454Z,100775.50
2019-04-29T03:04:23.397Z,100772.02
2019-04-29T03:06:51.156Z,100777.92
2019-04-29T03:09:21.456Z,100778.33
2019-04-29T03:11:49.233Z,100771.67
2019-04-29T03:14:16.971Z,100764.41
2019-04-29T03:16:44.748Z,100770.13
2019-04-29T03:19:18.892Z,100766.51
2019-04-29T03:21:57.292Z,100766.09
2019-04-29T03:24:25.004Z,100764.53
2019-04-29T03:26:52.828Z,100769.31
2019-04-29T03:29:23.363Z,100767.33
2019-04-29T03:31:53.400Z,100766.20
2019-04-29T03:34:21.497Z,100759.27
2019-04-29T03:36:49.545Z,100761.45
2019-04-29T03:39:17.625Z,100758.23
2019-04-29T03:41:45.392Z,100762.27
2019-04-29T03:44:13.373Z,100756.78
2019-04-29T03:46:41.197Z,100757.58
2019-04-29T03:49:08.970Z,100753.53
2019-04-29T03:51:36.705Z,100752.40
2019-04-29T03:54:04.479Z,100750.26
2019-04-29T03:56:32.488Z,100749.12
2019-04-29T03:59:00.519Z,100747.03
2019-04-29T04:01:33.673Z,100742.47
2019-04-29T04:04:29.983Z,100741.13
2019-04-29T04:07:17.313Z,100742.25
2019-04-29T04:09:46.217Z,100743.11
2019-04-29T04:12:13.981Z,100744.45
2019-04-29T04:14:41.731Z,100747.95
2019-04-29T04:17:30.521Z,100742.48
2019-04-29T04:19:58.411Z,100747.38
2019-04-29T04:22:30.034Z,100739.08
2019-04-29T04:24:58.394Z,100739.58
2019-04-29T04:27:26.381Z,100741.91
2019-04-29T04:29:54.169Z,100743.13
2019-04-29T04:32:21.930Z,100749.50
2019-04-29T04:34:49.690Z,100749.28
2019-04-29T04:37:17.427Z,100747.68
2019-04-29T04:39:45.588Z,100742.55
2019-04-29T04:42:13.376Z,100745.63
2019-04-29T04:44:49.796Z,100745.97
2019-04-29T04:47:19.073Z,100746.05
2019-04-29T04:49:47.530Z,100747.53
2019-04-29T04:52:15.281Z,100741.21
2019-04-29T04:54:44.676Z,100745.16
2019-04-29T04:57:12.430Z,100744.23
2019-04-29T04:59:40.177Z,100745.88
2019-04-29T05:02:07.890Z,100741.42
2019-04-29T05:04:35.626Z,100747.14
2019-04-29T05:07:03.635Z,100750.43
2019-04-29T05:09:32.958Z,100751.80
2019-04-29T05:12:00.720Z,100753.88
2019-04-29T05:14:28.467Z,100756.27
2019-04-29T05:16:56.230Z,100751.95
2019-04-29T05:19:23.980Z,100744.48
2019-04-29T05:21:51.794Z,100742.73
2019-04-29T05:24:19.548Z,100740.84
2019-04-29T05:26:49.147Z,100733.30
2019-04-29T05:29:16.900Z,100738.37
2019-04-29T05:31:44.952Z,100725.34
2019-04-29T05:34:14.513Z,100722.17
2019-04-29T05:37:02.953Z,100716.77
2019-04-29T05:39:33.667Z,100731.89
2019-04-29T05:42:01.463Z,100724.41
2019-04-29T05:44:48.819Z,100726.30
2019-04-29T05:47:23.089Z,100723.84
2019-04-29T05:50:11.983Z,100726.22
2019-04-29T05:52:56.448Z,100726.60
2019-04-29T05:55:24.231Z,100721.41
2019-04-29T05:57:55.889Z,100726.41
2019-04-29T06:00:24.365Z,100719.51
2019-04-29T06:02:52.157Z,100718.20
2019-04-29T06:05:19.919Z,100716.19
2019-04-29T06:07:51.506Z,100719.03
2019-04-29T06:10:22.526Z,100714.60
2019-04-29T06:12:47.725Z,100715.95
2019-04-29T06:15:16.926Z,100714.24
2019-04-29T06:17:46.291Z,100713.73
2019-04-29T06:20:17.938Z,100707.42
2019-04-29T06:22:44.200Z,100712.65
2019-04-29T06:25:13.755Z,100704.41
2019-04-29T06:27:43.788Z,100703.77
2019-04-29T06:30:13.159Z,100703.01
2019-04-29T06:32:40.979Z,100706.44
2019-04-29T06:35:10.730Z,100706.36
2019-04-29T06:37:38.484Z,100703.89
2019-04-29T06:40:06.587Z,100705.00
2019-04-29T06:42:34.330Z,100698.38
2019-04-29T06:45:02.299Z,100700.61
2019-04-29T06:47:30.090Z,100698.41
2019-04-29T06:49:58.102Z,100695.94
2019-04-29T06:52:25.855Z,100702.58
2019-04-29T06:54:53.640Z,100711.96
2019-04-29T06:57:21.481Z,100703.12
2019-04-29T06:59:49.268Z,100702.09
2019-04-29T07:02:17.007Z,100702.52
2019-04-29T07:04:44.795Z,100700.50
2019-04-29T07:07:14.563Z,100701.41
2019-04-29T07:09:42.628Z,100694.53
2019-04-29T07:12:12.556Z,100693.15
2019-04-29T07:14:40.069Z,100692.44
2019-04-29T07:17:07.823Z,100684.91
2019-04-29T07:19:35.599Z,100690.25
2019-04-29T07:22:04.167Z,100685.52
2019-04-29T07:24:32.057Z,100684.52
2019-04-29T07:27:02.720Z,100681.48
2019-04-29T07:29:32.001Z,100676.97
2019-04-29T07:31:59.194Z,100681.48
2019-04-29T07:34:28.869Z,100667.84
2019-04-29T07:36:57.669Z,100669.73
2019-04-29T07:39:26.884Z,100662.37
2019-04-29T07:41:57.243Z,100666.63
2019-04-29T07:44:32.846Z,100662.25
2019-04-29T07:47:00.236Z,100668.17
2019-04-29T07:49:26.432Z,100656.38
2019-04-29T07:51:54.255Z,100660.55
2019-04-29T07:54:22.017Z,100668.17
2019-04-29T07:56:49.733Z,100671.09
2019-04-29T07:59:17.489Z,100659.12
2019-04-29T08:01:45.425Z,100664.73
2019-04-29T08:04:13.193Z,100653.53
2019-04-29T08:06:42.891Z,100659.08
2019-04-29T08:09:12.439Z,100666.64
2019-04-29T08:11:40.746Z,100659.92
2019-04-29T08:14:08.516Z,100657.58
2019-04-29T08:16:36.304Z,100662.98
2019-04-29T08:19:05.024Z,100666.80
2019-04-29T08:21:33.121Z,100662.98
2019-04-29T08:24:00.893Z,100660.77
2019-04-29T08:26:28.664Z,100660.77
2019-04-29T08:29:00.329Z,100651.28
2019-04-29T08:31:26.126Z,100641.98
2019-04-29T08:33:53.911Z,100638.08
2019-04-29T08:36:21.715Z,100629.23
2019-04-29T08:38:49.499Z,100610.60
2019-04-29T08:41:21.022Z,100606.39
2019-04-29T08:44:15.935Z,100605.71
2019-04-29T08:46:52.007Z,100613.30
2019-04-29T08:49:20.125Z,100620.17
2019-04-29T08:51:47.864Z,100624.20
2019-04-29T08:54:15.991Z,100635.34
2019-04-29T08:57:01.838Z,100629.58
2019-04-29T08:59:14.945Z,100624.95
2019-04-29T09:01:42.771Z,100631.46
2019-04-29T09:04:10.503Z,100620.69
2019-04-29T09:06:38.277Z,100626.62
2019-04-29T09:09:10.581Z,100625.97
2019-04-29T09:11:36.083Z,100613.43
2019-04-29T09:14:04.068Z,100620.25
2019-04-29T09:16:31.796Z,100611.50
2019-04-29T09:18:59.538Z,100605.33
2019-04-29T09:21:27.259Z,100598.47
2019-04-29T09:23:55.007Z,100594.05
2019-04-29T09:26:37.345Z,100594.05
2019-04-29T09:29:23.121Z,100596.63
2019-04-29T09:31:51.141Z,100587.25
2019-04-29T09:34:19.782Z,100582.91
2019-04-29T09:36:49.841Z,100591.52
2019-04-29T09:39:17.644Z,100589.60
2019-04-29T09:42:12.860Z,100579.77
2019-04-29T09:44:55.885Z,100582.75
2019-04-29T09:47:23.848Z,100579.42
2019-04-29T09:49:51.611Z,100574.61
2019-04-29T09:52:19.377Z,100579.39
2019-04-29T09:54:47.165Z,100587.98
2019-04-29T09:57:14.938Z,100581.05
2019-04-29T09:59:47.648Z,100579.63
2019-04-29T10:02:31.352Z,100574.01
2019-04-29T10:05:15.863Z,100577.32
2019-04-29T10:07:43.898Z,100579.92
2019-04-29T10:10:11.968Z,100584.36
2019-04-29T10:12:39.726Z,100575.92
2019-04-29T10:15:09.430Z,100574.12
2019-04-29T10:17:56.780Z,100572.36
2019-04-29T10:20:37.958Z,100571.70
2019-04-29T10:23:05.931Z,100575.80
2019-04-29T10:25:33.666Z,100575.31
2019-04-29T10:28:01.422Z,100566.99
2019-04-29T10:30:31.240Z,100573.50
2019-04-29T10:33:00.146Z,100573.16
2019-04-29T10:35:27.938Z,100572.27
2019-04-29T10:37:55.704Z,100575.05
2019-04-29T10:40:50.008Z,100573.91
2019-04-29T10:43:40.369Z,100567.44
2019-04-29T10:46:26.234Z,100560.53
2019-04-29T10:49:03.803Z,100549.99
2019-04-29T10:51:29.344Z,100551.95
2019-04-29T10:53:57.132Z,100543.69
2019-04-29T10:56:25.067Z,100551.05
2019-04-29T10:58:53.003Z,100551.67
2019-04-29T11:02:29.179Z,100545.05
2019-04-29T11:05:07.863Z,100548.47
2019-04-29T11:07:36.861Z,100535.44
2019-04-29T11:10:24.329Z,100529.47
2019-04-29T11:12:42.384Z,100527.22
2019-04-29T11:15:13.988Z,100522.19
2019-04-29T11:17:44.747Z,100525.98
2019-04-29T11:20:11.304Z,100519.02
2019-04-29T11:22:45.159Z,100521.44
2019-04-29T11:25:22.765Z,100509.86
2019-04-29T11:27:52.393Z,100507.51
2019-04-29T11:30:23.620Z,100498.06
2019-04-29T11:33:04.845Z,100506.72
2019-04-29T11:35:44.032Z,100501.49
2019-04-29T11:38:12.282Z,100502.41
2019-04-29T11:40:43.732Z,100503.06
2019-04-29T11:43:15.474Z,100500.41
2019-04-29T11:45:42.254Z,100496.91
2019-04-29T11:48:10.015Z,100491.04
2019-04-29T11:50:49.307Z,100490.02
2019-04-29T11:53:14.982Z,100506.48
2019-04-29T11:55:46.117Z,100499.67
2019-04-29T11:58:31.240Z,100503.94
2019-04-29T12:01:21.416Z,100497.23
2019-04-29T12:03:51.535Z,100503.91
2019-04-29T12:06:20.853Z,100491.19
2019-04-29T12:08:53.365Z,100498.14
2019-04-29T12:11:20.028Z,100494.69
2019-04-29T12:14:10.155Z,100489.73
2019-04-29T12:16:44.578Z,100482.87
2019-04-29T12:19:17.210Z,100485.94
2019-04-29T12:21:45.366Z,100499.09
2019-04-29T12:24:13.106Z,100494.90
2019-04-29T12:26:44.308Z,100493.16
2019-04-29T12:29:13.765Z,100494.25
2019-04-29T12:31:54.037Z,100498.51
2019-04-29T12:34:47.008Z,100492.42
2019-04-29T12:37:34.572Z,100497.09
2019-04-29T12:40:20.560Z,100482.87
2019-04-29T12:43:15.734Z,100490.45
2019-04-29T12:45:47.941Z,100489.31
2019-04-29T12:48:24.347Z,100484.44
2019-04-29T12:50:45.464Z,100474.48
2019-04-29T12:53:13.501Z,100487.17
2019-04-29T12:55:48.972Z,100475.08
2019-04-29T12:58:19.489Z,100475.95
2019-04-29T13:00:48.237Z,100483.96
2019-04-29T13:03:39.749Z,100472.25
2019-04-29T13:06:10.655Z,100469.89
2019-04-29T13:08:44.851Z,100469.22
2019-04-29T13:11:14.740Z,100476.41
2019-04-29T13:13:42.447Z,100480.84
2019-04-29T13:16:32.129Z,100474.13
2019-04-29T13:19:18.322Z,100476.20
2019-04-29T13:21:42.776Z,100476.58
2019-04-29T13:24:23.111Z,100471.23
2019-04-29T13:26:42.964Z,100465.22
2019-04-29T13:29:25.842Z,100473.03
2019-04-29T13:31:40.845Z,100468.55
2019-04-29T13:34:24.158Z,100471.86
2019-04-29T13:36:40.318Z,100470.95
2019-04-29T13:39:08.353Z,100464.03
2019-04-29T13:41:55.616Z,100465.26
2019-04-29T13:44:07.519Z,100462.17
2019-04-29T13:46:57.190Z,100462.94
2019-04-29T13:49:32.993Z,100466.91
2019-04-29T13:52:00.767Z,100464.22
2019-04-29T13:54:28.516Z,100462.35
2019-04-29T13:57:01.149Z,100460.34
2019-04-29T13:59:41.705Z,100462.59
2019-04-29T14:02:30.623Z,100453.38
2019-04-29T14:04:56.089Z,100452.80
2019-04-29T14:07:24.792Z,100459.24
2019-04-29T14:09:53.606Z,100459.55
2019-04-29T14:14:53.902Z,100449.55
2019-04-29T14:17:26.612Z,100434.37
2019-04-29T14:19:50.576Z,100437.34
2019-04-29T14:22:22.263Z,100439.83
2019-04-29T14:24:48.195Z,100443.53
2019-04-29T14:27:24.445Z,100443.09
2019-04-29T14:29:45.580Z,100431.05
2019-04-29T14:32:13.324Z,100432.51
2019-04-29T14:34:50.592Z,100432.97
2019-04-29T14:37:23.471Z,100430.29
2019-04-29T14:39:48.079Z,100435.89
2019-04-29T14:42:30.180Z,100438.48
2019-04-29T14:45:07.734Z,100427.53
2019-04-29T14:48:09.723Z,100436.08
2019-04-29T14:50:37.698Z,100441.42
2019-04-29T14:53:05.493Z,100442.13
2019-04-29T14:55:33.363Z,100432.80
2019-04-29T14:58:01.117Z,100437.59
2019-04-29T15:00:54.644Z,100438.31
2019-04-29T15:03:24.442Z,100438.88
2019-04-29T15:05:52.246Z,100436.41
2019-04-29T15:08:20.097Z,100432.89
2019-04-29T15:10:49.858Z,100440.19
2019-04-29T15:13:21.405Z,100442.95
2019-04-29T15:16:18.829Z,100447.22
2019-04-29T15:18:55.254Z,100450.77
2019-04-29T15:21:45.724Z,100442.14
2019-04-29T15:24:15.836Z,100444.82
2019-04-29T15:26:43.872Z,100444.67
2019-04-29T15:29:11.635Z,100450.25
2019-04-29T15:31:42.477Z,100442.88
2019-04-29T15:34:11.724Z,100447.81
2019-04-29T15:36:41.861Z,100449.23
2019-04-29T15:39:11.214Z,100443.13
2019-04-29T15:41:38.411Z,100449.14
2019-04-29T15:44:08.449Z,100447.53
2019-04-29T15:46:46.128Z,100449.50
2019-04-29T15:49:05.715Z,100455.22
2019-04-29T15:51:33.557Z,100449.69
2019-04-29T15:54:01.340Z,100451.94
2019-04-29T15:56:33.624Z,100464.67
2019-04-29T15:59:05.681Z,100462.58
2019-04-29T16:01:30.475Z,100469.96
2019-04-29T16:04:02.543Z,100469.35
2019-04-29T16:06:56.664Z,100464.71
2019-04-29T16:09:50.288Z,100467.89
2019-04-29T16:12:14.069Z,100468.54
2019-04-29T16:14:35.754Z,100466.45
2019-04-29T16:17:03.664Z,100467.49
2019-04-29T16:19:31.414Z,100464.50
2019-04-29T16:21:59.162Z,100464.44
2019-04-29T16:24:32.296Z,100468.20
2019-04-29T16:27:01.432Z,100461.28
2019-04-29T16:29:26.257Z,100468.80
2019-04-29T16:31:55.138Z,100461.20
2019-04-29T16:34:24.298Z,100466.47
2019-04-29T16:36:52.586Z,100465.48
2019-04-29T16:39:20.543Z,100468.42
2019-04-29T16:42:06.513Z,100464.22
2019-04-29T16:44:36.270Z,100461.20
2019-04-29T16:47:07.492Z,100460.52
2019-04-29T16:49:36.491Z,100463.53
2019-04-29T16:52:04.575Z,100466.45
2019-04-29T16:54:32.526Z,100460.08
2019-04-29T16:57:02.391Z,100464.65
2019-04-29T16:59:30.172Z,100468.13
2019-04-29T17:01:58.117Z,100463.67
2019-04-29T17:04:29.292Z,100462.49
2019-04-29T17:07:12.473Z,100468.80
2019-04-29T17:09:56.355Z,100471.36
2019-04-29T17:12:36.252Z,100477.51
2019-04-29T17:15:14.826Z,100475.94
2019-04-29T17:17:42.125Z,100475.01
2019-04-29T17:20:18.349Z,100479.37
2019-04-29T17:22:55.904Z,100480.36
2019-04-29T17:25:36.051Z,100482.00
2019-04-29T17:29:37.433Z,100483.04
2019-04-29T17:32:08.153Z,100485.53
2019-04-29T17:34:58.901Z,100480.80
2019-04-29T17:37:29.226Z,100489.97
2019-04-29T17:40:01.633Z,100485.91
2019-04-29T17:42:31.795Z,100490.58
2019-04-29T17:45:27.253Z,100489.36
2019-04-29T17:48:20.441Z,100487.17
2019-04-29T17:51:04.133Z,100492.35
2019-04-29T17:53:36.724Z,100485.45
2019-04-29T17:56:26.979Z,100474.49
2019-04-29T17:58:58.583Z,100484.87
2019-04-29T18:01:42.583Z,100482.14
2019-04-29T18:04:45.574Z,100475.47
2019-04-29T18:07:35.549Z,100473.59
2019-04-29T18:10:17.588Z,100478.09
2019-04-29T18:12:46.134Z,100483.04
2019-04-29T18:15:20.050Z,100485.14
2019-04-29T18:17:46.106Z,100486.03
2019-04-29T18:20:35.668Z,100489.36
2019-04-29T18:23:32.314Z,100481.84
2019-04-29T18:26:15.513Z,100488.23
2019-04-29T18:28:45.928Z,100490.56
2019-04-29T18:31:16.511Z,100490.27
2019-04-29T18:33:45.126Z,100489.52
2019-04-29T18:36:21.964Z,100491.02
2019-04-29T18:38:48.769Z,100488.30
2019-04-29T18:41:16.476Z,100495.50
2019-04-29T18:43:42.335Z,100488.23
2019-04-29T18:46:14.302Z,100495.98
2019-04-29T18:48:42.046Z,100495.36
2019-04-29T18:51:10.065Z,100493.64
2019-04-29T18:53:37.879Z,100503.61
2019-04-29T18:56:05.713Z,100506.02
2019-04-29T18:58:35.488Z,100503.09
2019-04-29T19:01:05.731Z,100502.96
2019-04-29T19:03:55.627Z,100503.17
2019-04-29T19:06:23.701Z,100507.53
2019-04-29T19:08:54.887Z,100514.13
2019-04-29T19:11:30.633Z,100506.24
2019-04-29T19:13:53.305Z,100514.59
2019-04-29T19:16:22.068Z,100520.05
2019-04-29T19:18:57.733Z,100516.62
2019-04-29T19:21:23.555Z,100517.12
2019-04-29T19:23:57.463Z,100518.86
2019-04-29T19:26:25.861Z,100529.13
2019-04-29T19:28:53.718Z,100532.25
2019-04-29T19:31:21.741Z,100528.30
2019-04-29T19:33:49.547Z,100533.69
2019-04-29T19:36:21.443Z,100541.97
2019-04-29T19:38:47.423Z,100538.94
2019-04-29T19:41:16.279Z,100540.67
2019-04-29T19:43:48.241Z,100542.09
2019-04-29T19:46:22.676Z,100540.45
2019-04-29T19:48:45.102Z,100545.45
2019-04-29T19:51:16.070Z,100547.47
2019-04-29T19:53:48.890Z,100543.76
2019-04-29T19:56:20.978Z,100542.97
2019-04-29T19:58:42.412Z,100534.71
2019-04-29T20:01:14.213Z,100537.92
2019-04-29T20:03:57.366Z,100539.38
2019-04-29T20:06:30.042Z,100540.18
2019-04-29T20:09:00.799Z,100542.48
2019-04-29T20:11:32.706Z,100548.08
2019-04-29T20:14:05.747Z,100546.34
2019-04-29T20:16:52.615Z,100554.59
2019-04-29T20:19:36.010Z,100554.34
2019-04-29T20:22:09.111Z,100556.92
2019-04-29T20:24:36.135Z,100559.37
2019-04-29T20:27:05.001Z,100558.59
2019-04-29T20:29:34.371Z,100558.27
2019-04-29T20:32:02.791Z,100573.53
2019-04-29T20:34:30.858Z,100562.28
2019-04-29T20:36:59.526Z,100567.27
2019-04-29T20:39:27.612Z,100570.62
2019-04-29T20:41:56.091Z,100567.41
2019-04-29T20:44:24.355Z,100560.77
2019-04-29T20:47:15.821Z,100569.40
2019-04-29T20:49:22.096Z,100563.70
2019-04-29T20:51:55.586Z,100571.56
2019-04-29T20:54:27.292Z,100579.87
2019-04-29T20:57:02.862Z,100582.06
2019-04-29T20:59:25.908Z,100580.58
2019-04-29T21:02:10.593Z,100581.94
2019-04-29T21:04:31.899Z,100577.58
2019-04-29T21:07:01.963Z,100576.73
2019-04-29T21:09:30.142Z,100580.70
2019-04-29T21:12:34.732Z,100582.28
2019-04-29T21:15:09.395Z,100578.12
2019-04-29T21:17:35.383Z,100588.28
2019-04-29T21:20:04.483Z,100588.37
2019-04-29T21:22:32.280Z,100589.84
2019-04-29T21:25:00.140Z,100590.14
2019-04-29T21:27:27.982Z,100582.98
2019-04-29T21:29:55.819Z,100595.52
2019-04-29T21:32:25.616Z,100596.03
2019-04-29T21:35:18.555Z,100590.91
2019-04-29T21:37:57.921Z,100600.55
2019-04-29T21:40:35.113Z,100599.82
2019-04-29T21:43:13.704Z,100599.40
2019-04-29T21:45:39.810Z,100611.92
2019-04-29T21:48:07.108Z,100606.12
2019-04-29T21:50:37.991Z,100606.53
2019-04-29T21:53:05.088Z,100605.06
2019-04-29T21:55:33.066Z,100603.41
2019-04-29T21:58:00.860Z,100603.99
2019-04-29T22:00:28.783Z,100601.92
2019-04-29T22:02:58.927Z,100603.98
2019-04-29T22:05:26.388Z,100608.71
2019-04-29T22:09:18.826Z,100606.02
2019-04-29T22:11:46.970Z,100607.16
2019-04-29T22:21:36.130Z,100610.11
2019-04-29T22:24:06.186Z,100617.28
2019-04-29T22:26:35.034Z,100617.08
2019-04-29T22:29:03.556Z,100622.63
2019-04-29T22:31:34.120Z,100620.34
2019-04-29T22:34:05.378Z,100620.10
2019-04-29T22:36:33.050Z,100619.13
2019-04-29T22:39:01.203Z,100618.34
2019-04-29T22:41:39.831Z,100619.69
2019-04-29T22:44:08.167Z,100621.44
2019-04-29T22:46:39.939Z,100629.09
2019-04-29T22:49:05.912Z,100618.31
2019-04-29T22:51:35.454Z,100619.77
2019-04-29T22:54:03.665Z,100620.27
2019-04-29T22:56:31.466Z,100622.31
2019-04-29T22:58:59.284Z,100629.56
2019-04-29T23:01:27.125Z,100631.61
2019-04-29T23:03:55.452Z,100629.52
2019-04-29T23:06:25.868Z,100627.98
2019-04-29T23:08:55.970Z,100622.87
2019-04-29T23:11:23.607Z,100626.75
2019-04-29T23:13:51.407Z,100632.46
2019-04-29T23:16:19.238Z,100628.73
2019-04-29T23:18:47.129Z,100623.92
2019-04-29T23:21:37.457Z,100624.38
2019-04-29T23:24:20.644Z,100618.65
2019-04-29T23:26:48.447Z,100627.44
2019-04-29T23:29:16.270Z,100632.69
2019-04-29T23:31:45.391Z,100634.92
2019-04-29T23:34:13.328Z,100636.51
2019-04-29T23:36:44.636Z,100632.94
2019-04-29T23:39:11.080Z,100635.10
2019-04-29T23:41:38.918Z,100634.39
2019-04-29T23:44:08.811Z,100633.05
2019-04-29T23:46:36.464Z,100629.41
2019-04-29T23:49:06.667Z,100624.17
2019-04-29T23:51:37.608Z,100626.48
2019-04-29T23:54:07.874Z,100623.66
2019-04-29T23:56:42.751Z,100634.27
2019-04-29T23:59:19.967Z,100634.02
